sensor_id;sensor_type;location;lat;lon;timestamp;pressure;altitude;pressure_sealevel;temperature;humidity
23589;BME280;11972;48.078;11.876;2023-04-08T00:03:55;95416.28;;;1.06;100.00
23589;BME280;11972;48.078;11.876;2023-04-08T00:07:55;95409.88;;;1.10;100.00
23589;BME280;11972;48.078;11.876;2023-04-08T00:11:56;95422.19;;;1.08;100.00
23589;BME280;11972;48.078;11.876;2023-04-08T00:15:56;95426.31;;;1.10;100.00
23589;BME280;11972;48.078;11.876;2023-04-08T00:19:57;95432.28;;;1.22;100.00
23589;BME280;11972;48.078;11.876;2023-04-08T00:23:57;95442.69;;;1.22;100.00
23589;BME280;11972;48.078;11.876;2023-04-08T00:27:58;95441.47;;;1.05;100.00
23589;BME280;11972;48.078;11.876;2023-04-08T00:31:58;95433.13;;;0.90;100.00
23589;BME280;11972;48.078;11.876;2023-04-08T00:35:58;95432.44;;;0.88;100.00
23589;BME280;11972;48.078;11.876;2023-04-08T00:39:59;95431.69;;;0.97;100.00
23589;BME280;11972;48.078;11.876;2023-04-08T00:43:59;95431.31;;;1.23;100.00
23589;BME280;11972;48.078;11.876;2023-04-08T00:48:01;95430.09;;;1.27;100.00
23589;BME280;11972;48.078;11.876;2023-04-08T00:52:02;95433.81;;;1.24;100.00
23589;BME280;11972;48.078;11.876;2023-04-08T00:56:02;95430.25;;;1.26;100.00
23589;BME280;11972;48.078;11.876;2023-04-08T01:00:03;95432.78;;;1.37;100.00
23589;BME280;11972;48.078;11.876;2023-04-08T01:08:37;95430.75;;;2.02;100.00
23589;BME280;11972;48.078;11.876;2023-04-08T01:12:47;95428.75;;;2.15;100.00
23589;BME280;11972;48.078;11.876;2023-04-08T01:16:48;95430.81;;;2.21;100.00
23589;BME280;11972;48.078;11.876;2023-04-08T01:20:50;95429.31;;;2.28;100.00
23589;BME280;11972;48.078;11.876;2023-04-08T01:24:58;95430.72;;;2.32;100.00
23589;BME280;11972;48.078;11.876;2023-04-08T01:29:01;95435.09;;;2.41;100.00
23589;BME280;11972;48.078;11.876;2023-04-08T01:33:02;95431.28;;;2.45;100.00
23589;BME280;11972;48.078;11.876;2023-04-08T01:37:05;95433.75;;;2.47;100.00
23589;BME280;11972;48.078;11.876;2023-04-08T01:41:08;95439.50;;;2.51;100.00
23589;BME280;11972;48.078;11.876;2023-04-08T01:45:09;95433.78;;;2.57;100.00
23589;BME280;11972;48.078;11.876;2023-04-08T01:49:11;95436.53;;;2.65;100.00
23589;BME280;11972;48.078;11.876;2023-04-08T01:53:11;95421.84;;;2.73;100.00
23589;BME280;11972;48.078;11.876;2023-04-08T01:57:16;95432.94;;;2.76;100.00
23589;BME280;11972;48.078;11.876;2023-04-08T02:01:20;95433.78;;;2.86;100.00
23589;BME280;11972;48.078;11.876;2023-04-08T02:05:21;95434.59;;;2.96;100.00
23589;BME280;11972;48.078;11.876;2023-04-08T02:09:23;95432.69;;;3.08;100.00
23589;BME280;11972;48.078;11.876;2023-04-08T02:13:24;95435.97;;;3.19;100.00
23589;BME280;11972;48.078;11.876;2023-04-08T02:17:51;95437.63;;;3.30;100.00
23589;BME280;11972;48.078;11.876;2023-04-08T02:22:02;95435.81;;;3.40;100.00
23589;BME280;11972;48.078;11.876;2023-04-08T02:26:07;95435.81;;;3.50;100.00
23589;BME280;11972;48.078;11.876;2023-04-08T02:30:12;95431.53;;;3.59;100.00
23589;BME280;11972;48.078;11.876;2023-04-08T02:34:13;95434.53;;;3.64;100.00
23589;BME280;11972;48.078;11.876;2023-04-08T02:38:15;95436.69;;;3.68;100.00
23589;BME280;11972;48.078;11.876;2023-04-08T02:42:15;95432.69;;;3.74;100.00
23589;BME280;11972;48.078;11.876;2023-04-08T02:46:16;95433.13;;;3.79;100.00
23589;BME280;11972;48.078;11.876;2023-04-08T02:50:16;95423.19;;;3.83;100.00
23589;BME280;11972;48.078;11.876;2023-04-08T02:54:16;95437.47;;;3.88;100.00
23589;BME280;11972;48.078;11.876;2023-04-08T02:58:17;95431.97;;;3.91;100.00
23589;BME280;11972;48.078;11.876;2023-04-08T03:02:17;95436.06;;;3.94;100.00
23589;BME280;11972;48.078;11.876;2023-04-08T03:06:17;95430.84;;;3.94;100.00
23589;BME280;11972;48.078;11.876;2023-04-08T03:10:18;95430.03;;;3.93;100.00
23589;BME280;11972;48.078;11.876;2023-04-08T03:14:19;95433.31;;;3.95;100.00
23589;BME280;11972;48.078;11.876;2023-04-08T03:18:19;95440.19;;;3.96;100.00
23589;BME280;11972;48.078;11.876;2023-04-08T03:22:20;95443.78;;;3.95;100.00
23589;BME280;11972;48.078;11.876;2023-04-08T03:26:20;95449.00;;;3.95;100.00
23589;BME280;11972;48.078;11.876;2023-04-08T03:30:21;95444.06;;;3.92;100.00
23589;BME280;11972;48.078;11.876;2023-04-08T03:34:21;95447.94;;;3.88;100.00
23589;BME280;11972;48.078;11.876;2023-04-08T03:38:21;95450.16;;;3.83;100.00
23589;BME280;11972;48.078;11.876;2023-04-08T03:42:22;95448.38;;;3.74;100.00
23589;BME280;11972;48.078;11.876;2023-04-08T03:46:22;95450.59;;;3.69;100.00
23589;BME280;11972;48.078;11.876;2023-04-08T03:50:23;95452.81;;;3.64;100.00
23589;BME280;11972;48.078;11.876;2023-04-08T03:54:23;95467.38;;;3.57;100.00
23589;BME280;11972;48.078;11.876;2023-04-08T03:58:24;95467.66;;;3.54;100.00
23589;BME280;11972;48.078;11.876;2023-04-08T04:02:24;95461.75;;;3.52;100.00
23589;BME280;11972;48.078;11.876;2023-04-08T04:06:24;95463.41;;;3.53;100.00
23589;BME280;11972;48.078;11.876;2023-04-08T04:10:25;95464.50;;;3.60;100.00
23589;BME280;11972;48.078;11.876;2023-04-08T04:14:25;95471.75;;;3.66;100.00
23589;BME280;11972;48.078;11.876;2023-04-08T04:18:26;95470.22;;;3.73;100.00
23589;BME280;11972;48.078;11.876;2023-04-08T04:22:26;95481.09;;;3.78;100.00
23589;BME280;11972;48.078;11.876;2023-04-08T04:26:26;95481.78;;;3.80;100.00
23589;BME280;11972;48.078;11.876;2023-04-08T04:30:27;95484.50;;;3.88;100.00
23589;BME280;11972;48.078;11.876;2023-04-08T04:34:27;95475.53;;;4.01;100.00
23589;BME280;11972;48.078;11.876;2023-04-08T04:38:28;95493.34;;;4.15;100.00
23589;BME280;11972;48.078;11.876;2023-04-08T04:42:28;95493.88;;;4.28;100.00
23589;BME280;11972;48.078;11.876;2023-04-08T04:46:28;95499.19;;;4.36;100.00
23589;BME280;11972;48.078;11.876;2023-04-08T04:50:29;95498.44;;;4.44;100.00
23589;BME280;11972;48.078;11.876;2023-04-08T04:54:29;95500.78;;;4.47;100.00
23589;BME280;11972;48.078;11.876;2023-04-08T04:58:30;95501.31;;;4.51;100.00
23589;BME280;11972;48.078;11.876;2023-04-08T05:02:30;95504.63;;;4.53;100.00
23589;BME280;11972;48.078;11.876;2023-04-08T05:06:31;95502.41;;;4.58;100.00
23589;BME280;11972;48.078;11.876;2023-04-08T05:10:31;95508.38;;;4.68;100.00
23589;BME280;11972;48.078;11.876;2023-04-08T05:14:32;95502.44;;;4.76;100.00
23589;BME280;11972;48.078;11.876;2023-04-08T05:18:32;95512.16;;;4.83;100.00
23589;BME280;11972;48.078;11.876;2023-04-08T05:22:32;95506.31;;;4.89;100.00
23589;BME280;11972;48.078;11.876;2023-04-08T05:26:33;95507.69;;;4.93;100.00
23589;BME280;11972;48.078;11.876;2023-04-08T05:30:33;95509.88;;;4.98;100.00
23589;BME280;11972;48.078;11.876;2023-04-08T05:34:34;95506.50;;;5.06;100.00
23589;BME280;11972;48.078;11.876;2023-04-08T05:38:35;95504.81;;;5.14;100.00
23589;BME280;11972;48.078;11.876;2023-04-08T05:42:35;95506.97;;;5.19;100.00
23589;BME280;11972;48.078;11.876;2023-04-08T05:46:38;95515.72;;;5.28;100.00
23589;BME280;11972;48.078;11.876;2023-04-08T05:50:39;95508.75;;;5.36;100.00
23589;BME280;11972;48.078;11.876;2023-04-08T05:54:42;95509.50;;;5.46;100.00
23589;BME280;11972;48.078;11.876;2023-04-08T05:58:42;95513.31;;;5.52;100.00
23589;BME280;11972;48.078;11.876;2023-04-08T06:02:43;95515.84;;;5.62;100.00
23589;BME280;11972;48.078;11.876;2023-04-08T06:06:43;95517.25;;;5.74;100.00
23589;BME280;11972;48.078;11.876;2023-04-08T06:10:50;95514.69;;;5.82;100.00
23589;BME280;11972;48.078;11.876;2023-04-08T06:14:54;95529.38;;;5.93;100.00
23589;BME280;11972;48.078;11.876;2023-04-08T06:18:55;95529.59;;;6.00;100.00
23589;BME280;11972;48.078;11.876;2023-04-08T06:22:55;95528.28;;;6.04;100.00
23589;BME280;11972;48.078;11.876;2023-04-08T06:26:56;95527.69;;;6.10;100.00
23589;BME280;11972;48.078;11.876;2023-04-08T06:30:57;95530.66;;;6.15;100.00
23589;BME280;11972;48.078;11.876;2023-04-08T06:34:57;95537.72;;;6.14;100.00
23589;BME280;11972;48.078;11.876;2023-04-08T06:38:58;95531.50;;;6.15;100.00
23589;BME280;11972;48.078;11.876;2023-04-08T06:42:58;95541.22;;;6.23;100.00
23589;BME280;11972;48.078;11.876;2023-04-08T06:46:58;95543.53;;;6.26;100.00
23589;BME280;11972;48.078;11.876;2023-04-08T06:50:59;95549.44;;;6.28;100.00
23589;BME280;11972;48.078;11.876;2023-04-08T06:55:00;95550.13;;;6.30;100.00
23589;BME280;11972;48.078;11.876;2023-04-08T06:59:00;95548.00;;;6.34;100.00
23589;BME280;11972;48.078;11.876;2023-04-08T07:03:01;95544.19;;;6.28;100.00
23589;BME280;11972;48.078;11.876;2023-04-08T07:07:01;95544.78;;;6.14;100.00
23589;BME280;11972;48.078;11.876;2023-04-08T07:11:01;95548.34;;;6.13;100.00
23589;BME280;11972;48.078;11.876;2023-04-08T07:15:02;95555.78;;;6.17;100.00
23589;BME280;11972;48.078;11.876;2023-04-08T07:19:03;95558.44;;;6.26;100.00
23589;BME280;11972;48.078;11.876;2023-04-08T07:23:03;95564.09;;;6.39;100.00
23589;BME280;11972;48.078;11.876;2023-04-08T07:27:04;95561.00;;;6.43;100.00
23589;BME280;11972;48.078;11.876;2023-04-08T07:31:12;95560.41;;;6.58;100.00
23589;BME280;11972;48.078;11.876;2023-04-08T07:35:13;95558.50;;;6.68;100.00
23589;BME280;11972;48.078;11.876;2023-04-08T07:39:13;95554.22;;;6.59;100.00
23589;BME280;11972;48.078;11.876;2023-04-08T07:43:13;95574.91;;;6.10;100.00
23589;BME280;11972;48.078;11.876;2023-04-08T07:47:14;95569.59;;;5.48;100.00
23589;BME280;11972;48.078;11.876;2023-04-08T07:51:16;95580.75;;;4.87;100.00
23589;BME280;11972;48.078;11.876;2023-04-08T07:55:16;95580.38;;;4.35;100.00
23589;BME280;11972;48.078;11.876;2023-04-08T07:59:17;95581.28;;;4.16;100.00
23589;BME280;11972;48.078;11.876;2023-04-08T08:03:17;95584.03;;;4.14;100.00
23589;BME280;11972;48.078;11.876;2023-04-08T08:07:17;95588.94;;;4.27;100.00
23589;BME280;11972;48.078;11.876;2023-04-08T08:11:18;95580.66;;;4.41;100.00
23589;BME280;11972;48.078;11.876;2023-04-08T08:15:18;95597.94;;;4.52;100.00
23589;BME280;11972;48.078;11.876;2023-04-08T08:19:19;95594.72;;;4.40;100.00
23589;BME280;11972;48.078;11.876;2023-04-08T08:23:19;95596.78;;;4.27;100.00
23589;BME280;11972;48.078;11.876;2023-04-08T08:27:20;95594.75;;;4.21;100.00
23589;BME280;11972;48.078;11.876;2023-04-08T08:31:21;95599.41;;;4.27;100.00
23589;BME280;11972;48.078;11.876;2023-04-08T08:35:23;95605.22;;;4.21;100.00
23589;BME280;11972;48.078;11.876;2023-04-08T08:39:23;95605.94;;;4.04;100.00
23589;BME280;11972;48.078;11.876;2023-04-08T08:43:25;95601.94;;;4.00;100.00
23589;BME280;11972;48.078;11.876;2023-04-08T08:47:26;95609.66;;;3.91;100.00
23589;BME280;11972;48.078;11.876;2023-04-08T08:51:27;95605.81;;;3.95;100.00
23589;BME280;11972;48.078;11.876;2023-04-08T08:55:30;95612.09;;;4.03;100.00
23589;BME280;11972;48.078;11.876;2023-04-08T08:59:34;95601.59;;;4.32;100.00
23589;BME280;11972;48.078;11.876;2023-04-08T09:03:34;95615.09;;;4.37;100.00
23589;BME280;11972;48.078;11.876;2023-04-08T09:07:36;95617.28;;;4.41;100.00
23589;BME280;11972;48.078;11.876;2023-04-08T09:11:41;95612.28;;;4.48;100.00
23589;BME280;11972;48.078;11.876;2023-04-08T09:16:03;95622.66;;;4.30;100.00
23589;BME280;11972;48.078;11.876;2023-04-08T09:20:09;95624.72;;;4.36;100.00
23589;BME280;11972;48.078;11.876;2023-04-08T09:24:29;95634.44;;;4.54;100.00
23589;BME280;11972;48.078;11.876;2023-04-08T09:28:30;95633.75;;;4.52;100.00
23589;BME280;11972;48.078;11.876;2023-04-08T09:32:51;95631.31;;;4.40;100.00
23589;BME280;11972;48.078;11.876;2023-04-08T09:36:52;95633.78;;;4.42;100.00
23589;BME280;11972;48.078;11.876;2023-04-08T09:40:53;95619.97;;;4.59;100.00
23589;BME280;11972;48.078;11.876;2023-04-08T09:44:54;95622.63;;;4.77;100.00
23589;BME280;11972;48.078;11.876;2023-04-08T09:49:09;95632.00;;;4.80;100.00
23589;BME280;11972;48.078;11.876;2023-04-08T09:53:25;95625.63;;;4.92;100.00
23589;BME280;11972;48.078;11.876;2023-04-08T09:58:07;95637.94;;;4.82;100.00
23589;BME280;11972;48.078;11.876;2023-04-08T10:02:10;95633.53;;;4.82;100.00
23589;BME280;11972;48.078;11.876;2023-04-08T10:06:12;95631.69;;;4.92;100.00
23589;BME280;11972;48.078;11.876;2023-04-08T10:10:17;95642.06;;;5.12;100.00
23589;BME280;11972;48.078;11.876;2023-04-08T10:14:18;95634.03;;;5.41;100.00
23589;BME280;11972;48.078;11.876;2023-04-08T10:18:30;95619.91;;;5.69;100.00
23589;BME280;11972;48.078;11.876;2023-04-08T10:22:44;95619.50;;;6.36;100.00
23589;BME280;11972;48.078;11.876;2023-04-08T10:26:45;95617.09;;;6.42;100.00
23589;BME280;11972;48.078;11.876;2023-04-08T10:30:54;95611.09;;;6.58;100.00
23589;BME280;11972;48.078;11.876;2023-04-08T10:34:54;95621.06;;;6.46;100.00
23589;BME280;11972;48.078;11.876;2023-04-08T10:38:55;95621.13;;;6.11;100.00
23589;BME280;11972;48.078;11.876;2023-04-08T10:42:59;95607.47;;;5.89;100.00
23589;BME280;11972;48.078;11.876;2023-04-08T10:46:59;95602.75;;;5.75;100.00
23589;BME280;11972;48.078;11.876;2023-04-08T10:51:01;95606.59;;;5.81;100.00
23589;BME280;11972;48.078;11.876;2023-04-08T10:55:04;95618.41;;;5.67;100.00
23589;BME280;11972;48.078;11.876;2023-04-08T10:59:04;95610.25;;;5.70;100.00
23589;BME280;11972;48.078;11.876;2023-04-08T11:03:07;95614.97;;;5.66;100.00
23589;BME280;11972;48.078;11.876;2023-04-08T11:07:07;95618.13;;;5.52;100.00
23589;BME280;11972;48.078;11.876;2023-04-08T11:11:08;95622.06;;;5.38;100.00
23589;BME280;11972;48.078;11.876;2023-04-08T11:15:12;95622.38;;;5.35;100.00
23589;BME280;11972;48.078;11.876;2023-04-08T11:19:13;95627.56;;;5.17;100.00
23589;BME280;11972;48.078;11.876;2023-04-08T11:23:13;95628.03;;;5.31;100.00
23589;BME280;11972;48.078;11.876;2023-04-08T11:27:14;95638.72;;;5.19;100.00
23589;BME280;11972;48.078;11.876;2023-04-08T11:31:15;95641.78;;;5.15;100.00
23589;BME280;11972;48.078;11.876;2023-04-08T11:35:16;95633.78;;;5.16;100.00
23589;BME280;11972;48.078;11.876;2023-04-08T11:39:16;95642.94;;;5.03;100.00
23589;BME280;11972;48.078;11.876;2023-04-08T11:43:16;95637.00;;;5.01;100.00
23589;BME280;11972;48.078;11.876;2023-04-08T11:47:17;95641.81;;;5.05;100.00
23589;BME280;11972;48.078;11.876;2023-04-08T11:51:17;95636.34;;;4.98;100.00
23589;BME280;11972;48.078;11.876;2023-04-08T11:55:28;95643.75;;;5.03;100.00
23589;BME280;11972;48.078;11.876;2023-04-08T11:59:28;95642.75;;;4.86;100.00
23589;BME280;11972;48.078;11.876;2023-04-08T12:03:29;95651.84;;;4.82;100.00
23589;BME280;11972;48.078;11.876;2023-04-08T12:07:29;95650.75;;;4.75;100.00
23589;BME280;11972;48.078;11.876;2023-04-08T12:11:30;95652.91;;;4.89;100.00
23589;BME280;11972;48.078;11.876;2023-04-08T12:15:31;95650.88;;;4.83;100.00
23589;BME280;11972;48.078;11.876;2023-04-08T12:19:31;95657.03;;;4.92;100.00
23589;BME280;11972;48.078;11.876;2023-04-08T12:23:32;95644.09;;;4.90;100.00
23589;BME280;11972;48.078;11.876;2023-04-08T12:27:32;95651.53;;;4.85;100.00
23589;BME280;11972;48.078;11.876;2023-04-08T12:31:33;95651.63;;;4.66;100.00
23589;BME280;11972;48.078;11.876;2023-04-08T12:35:33;95664.88;;;4.55;100.00
23589;BME280;11972;48.078;11.876;2023-04-08T12:39:33;95682.53;;;4.33;100.00
23589;BME280;11972;48.078;11.876;2023-04-08T12:43:33;95673.44;;;4.37;100.00
23589;BME280;11972;48.078;11.876;2023-04-08T12:47:34;95670.41;;;4.22;100.00
23589;BME280;11972;48.078;11.876;2023-04-08T12:51:35;95673.19;;;4.21;100.00
23589;BME280;11972;48.078;11.876;2023-04-08T12:55:35;95667.25;;;4.19;100.00
23589;BME280;11972;48.078;11.876;2023-04-08T12:59:36;95677.84;;;4.27;100.00
23589;BME280;11972;48.078;11.876;2023-04-08T13:03:37;95670.69;;;4.29;100.00
23589;BME280;11972;48.078;11.876;2023-04-08T13:07:37;95673.03;;;4.32;100.00
23589;BME280;11972;48.078;11.876;2023-04-08T13:11:38;95675.53;;;4.24;100.00
23589;BME280;11972;48.078;11.876;2023-04-08T13:15:38;95677.16;;;4.15;100.00
23589;BME280;11972;48.078;11.876;2023-04-08T13:19:39;95680.63;;;4.16;100.00
23589;BME280;11972;48.078;11.876;2023-04-08T13:23:39;95686.38;;;3.90;100.00
23589;BME280;11972;48.078;11.876;2023-04-08T13:27:39;95693.16;;;3.93;100.00
23589;BME280;11972;48.078;11.876;2023-04-08T13:31:40;95689.72;;;3.92;100.00
23589;BME280;11972;48.078;11.876;2023-04-08T13:35:40;95693.69;;;3.96;100.00
23589;BME280;11972;48.078;11.876;2023-04-08T13:39:40;95695.09;;;3.91;100.00
23589;BME280;11972;48.078;11.876;2023-04-08T13:43:41;95698.94;;;3.96;100.00
23589;BME280;11972;48.078;11.876;2023-04-08T13:47:42;95697.41;;;3.94;100.00
23589;BME280;11972;48.078;11.876;2023-04-08T13:51:42;95694.38;;;3.79;100.00
23589;BME280;11972;48.078;11.876;2023-04-08T13:55:43;95699.06;;;3.76;100.00
23589;BME280;11972;48.078;11.876;2023-04-08T13:59:43;95701.53;;;3.87;100.00
23589;BME280;11972;48.078;11.876;2023-04-08T14:03:43;95708.41;;;4.07;100.00
23589;BME280;11972;48.078;11.876;2023-04-08T14:07:44;95703.06;;;4.09;100.00
23589;BME280;11972;48.078;11.876;2023-04-08T14:11:44;95703.06;;;4.09;100.00
23589;BME280;11972;48.078;11.876;2023-04-08T14:15:45;95712.81;;;4.26;100.00
23589;BME280;11972;48.078;11.876;2023-04-08T14:19:47;95719.69;;;4.27;100.00
23589;BME280;11972;48.078;11.876;2023-04-08T14:23:47;95724.50;;;4.22;100.00
23589;BME280;11972;48.078;11.876;2023-04-08T14:27:47;95727.81;;;4.24;100.00
23589;BME280;11972;48.078;11.876;2023-04-08T14:31:48;95731.25;;;4.25;100.00
23589;BME280;11972;48.078;11.876;2023-04-08T14:35:48;95712.53;;;4.29;100.00
23589;BME280;11972;48.078;11.876;2023-04-08T14:39:48;95718.03;;;4.36;100.00
23589;BME280;11972;48.078;11.876;2023-04-08T14:43:49;95724.91;;;4.46;100.00
23589;BME280;11972;48.078;11.876;2023-04-08T14:47:49;95727.53;;;4.46;100.00
23589;BME280;11972;48.078;11.876;2023-04-08T14:51:49;95722.69;;;4.52;100.00
23589;BME280;11972;48.078;11.876;2023-04-08T14:55:50;95723.78;;;4.59;100.00
23589;BME280;11972;48.078;11.876;2023-04-08T14:59:51;95730.09;;;4.76;100.00
23589;BME280;11972;48.078;11.876;2023-04-08T15:03:51;95735.31;;;4.76;100.00
23589;BME280;11972;48.078;11.876;2023-04-08T15:07:52;95732.03;;;4.64;100.00
23589;BME280;11972;48.078;11.876;2023-04-08T15:11:52;95730.69;;;4.50;100.00
23589;BME280;11972;48.078;11.876;2023-04-08T15:15:53;95745.00;;;4.56;100.00
23589;BME280;11972;48.078;11.876;2023-04-08T15:19:53;95741.97;;;4.51;100.00
23589;BME280;11972;48.078;11.876;2023-04-08T15:23:53;95746.66;;;4.47;100.00
23589;BME280;11972;48.078;11.876;2023-04-08T15:27:54;95744.44;;;4.62;100.00
23589;BME280;11972;48.078;11.876;2023-04-08T15:31:54;95743.19;;;4.66;100.00
23589;BME280;11972;48.078;11.876;2023-04-08T15:35:54;95749.28;;;4.57;100.00
23589;BME280;11972;48.078;11.876;2023-04-08T15:39:56;95755.19;;;4.59;100.00
23589;BME280;11972;48.078;11.876;2023-04-08T15:43:57;95746.34;;;4.60;100.00
23589;BME280;11972;48.078;11.876;2023-04-08T15:47:57;95753.50;;;4.67;100.00
23589;BME280;11972;48.078;11.876;2023-04-08T15:51:58;95752.69;;;4.67;100.00
23589;BME280;11972;48.078;11.876;2023-04-08T15:55:59;95753.22;;;4.61;100.00
23589;BME280;11972;48.078;11.876;2023-04-08T15:59:59;95761.25;;;4.59;100.00
23589;BME280;11972;48.078;11.876;2023-04-08T16:03:59;95743.47;;;4.63;100.00
23589;BME280;11972;48.078;11.876;2023-04-08T16:08:00;95754.34;;;4.68;100.00
23589;BME280;11972;48.078;11.876;2023-04-08T16:12:00;95759.84;;;4.75;100.00
23589;BME280;11972;48.078;11.876;2023-04-08T16:16:01;95768.09;;;4.80;100.00
23589;BME280;11972;48.078;11.876;2023-04-08T16:20:01;95764.50;;;4.81;100.00
23589;BME280;11972;48.078;11.876;2023-04-08T16:24:02;95769.19;;;4.77;100.00
23589;BME280;11972;48.078;11.876;2023-04-08T16:28:04;95775.41;;;4.76;100.00
23589;BME280;11972;48.078;11.876;2023-04-08T16:32:05;95779.25;;;4.72;100.00
23589;BME280;11972;48.078;11.876;2023-04-08T16:36:06;95780.50;;;4.68;100.00
23589;BME280;11972;48.078;11.876;2023-04-08T16:40:07;95785.47;;;4.71;100.00
23589;BME280;11972;48.078;11.876;2023-04-08T16:44:09;95783.81;;;4.70;100.00
23589;BME280;11972;48.078;11.876;2023-04-08T16:48:09;95795.94;;;4.71;100.00
23589;BME280;11972;48.078;11.876;2023-04-08T16:52:11;95791.53;;;4.71;100.00
23589;BME280;11972;48.078;11.876;2023-04-08T16:56:15;95793.59;;;4.68;100.00
23589;BME280;11972;48.078;11.876;2023-04-08T17:00:16;95799.78;;;4.67;100.00
23589;BME280;11972;48.078;11.876;2023-04-08T17:04:16;95789.72;;;4.72;100.00
23589;BME280;11972;48.078;11.876;2023-04-08T17:08:16;95799.09;;;4.75;100.00
23589;BME280;11972;48.078;11.876;2023-04-08T17:12:17;95801.72;;;4.75;100.00
23589;BME280;11972;48.078;11.876;2023-04-08T17:16:18;95803.22;;;4.77;100.00
23589;BME280;11972;48.078;11.876;2023-04-08T17:20:18;95806.41;;;4.71;100.00
23589;BME280;11972;48.078;11.876;2023-04-08T17:24:18;95809.41;;;4.76;100.00
23589;BME280;11972;48.078;11.876;2023-04-08T17:28:20;95812.88;;;4.86;100.00
23589;BME280;11972;48.078;11.876;2023-04-08T17:32:21;95809.00;;;4.90;100.00
23589;BME280;11972;48.078;11.876;2023-04-08T17:36:21;95813.66;;;4.96;100.00
23589;BME280;11972;48.078;11.876;2023-04-08T17:40:21;95814.91;;;5.02;100.00
23589;BME280;11972;48.078;11.876;2023-04-08T17:44:22;95823.44;;;5.04;100.00
23589;BME280;11972;48.078;11.876;2023-04-08T17:48:28;95826.59;;;5.08;100.00
23589;BME280;11972;48.078;11.876;2023-04-08T17:52:28;95830.06;;;4.98;100.00
23589;BME280;11972;48.078;11.876;2023-04-08T17:56:29;95833.50;;;4.89;100.00
23589;BME280;11972;48.078;11.876;2023-04-08T18:00:30;95831.47;;;4.83;100.00
23589;BME280;11972;48.078;11.876;2023-04-08T18:04:30;95842.47;;;4.77;100.00
23589;BME280;11972;48.078;11.876;2023-04-08T18:08:30;95850.47;;;4.76;100.00
23589;BME280;11972;48.078;11.876;2023-04-08T18:12:31;95858.44;;;4.64;100.00
23589;BME280;11972;48.078;11.876;2023-04-08T18:16:31;95863.13;;;4.41;100.00
23589;BME280;11972;48.078;11.876;2023-04-08T18:20:35;95866.16;;;4.37;100.00
23589;BME280;11972;48.078;11.876;2023-04-08T18:24:36;95877.19;;;4.40;100.00
23589;BME280;11972;48.078;11.876;2023-04-08T18:28:36;95873.31;;;4.44;100.00
23589;BME280;11972;48.078;11.876;2023-04-08T18:32:37;95872.47;;;4.34;100.00
23589;BME280;11972;48.078;11.876;2023-04-08T18:36:37;95881.28;;;4.33;100.00
23589;BME280;11972;48.078;11.876;2023-04-08T18:40:38;95887.91;;;4.37;100.00
23589;BME280;11972;48.078;11.876;2023-04-08T18:44:38;95896.16;;;4.42;100.00
23589;BME280;11972;48.078;11.876;2023-04-08T18:48:38;95897.69;;;4.45;100.00
23589;BME280;11972;48.078;11.876;2023-04-08T18:52:39;95898.91;;;4.41;100.00
23589;BME280;11972;48.078;11.876;2023-04-08T18:56:39;95902.34;;;4.41;100.00
23589;BME280;11972;48.078;11.876;2023-04-08T19:00:40;95903.44;;;4.39;100.00
23589;BME280;11972;48.078;11.876;2023-04-08T19:04:41;95911.03;;;4.32;100.00
23589;BME280;11972;48.078;11.876;2023-04-08T19:08:41;95916.78;;;4.26;100.00
23589;BME280;11972;48.078;11.876;2023-04-08T19:12:42;95921.44;;;4.22;100.00
23589;BME280;11972;48.078;11.876;2023-04-08T19:16:42;95921.16;;;4.16;100.00
23589;BME280;11972;48.078;11.876;2023-04-08T19:20:43;95924.28;;;4.10;100.00
23589;BME280;11972;48.078;11.876;2023-04-08T19:24:44;95927.72;;;4.10;100.00
23589;BME280;11972;48.078;11.876;2023-04-08T19:28:45;95930.47;;;4.09;100.00
23589;BME280;11972;48.078;11.876;2023-04-08T19:32:46;95927.63;;;4.12;100.00
23589;BME280;11972;48.078;11.876;2023-04-08T19:36:47;95935.47;;;4.12;100.00
23589;BME280;11972;48.078;11.876;2023-04-08T19:40:48;95931.72;;;4.05;100.00
23589;BME280;11972;48.078;11.876;2023-04-08T19:44:48;95941.44;;;4.03;100.00
23589;BME280;11972;48.078;11.876;2023-04-08T19:48:48;95945.75;;;4.04;100.00
23589;BME280;11972;48.078;11.876;2023-04-08T19:52:49;95948.34;;;4.04;100.00
23589;BME280;11972;48.078;11.876;2023-04-08T19:56:49;95954.66;;;4.01;100.00
23589;BME280;11972;48.078;11.876;2023-04-08T20:00:50;95943.81;;;4.06;100.00
23589;BME280;11972;48.078;11.876;2023-04-08T20:04:50;95944.25;;;4.11;100.00
23589;BME280;11972;48.078;11.876;2023-04-08T20:08:51;95948.53;;;4.12;100.00
23589;BME280;11972;48.078;11.876;2023-04-08T20:12:51;95951.81;;;4.14;100.00
23589;BME280;11972;48.078;11.876;2023-04-08T20:16:53;95944.78;;;4.05;100.00
23589;BME280;11972;48.078;11.876;2023-04-08T20:20:54;95952.38;;;4.08;100.00
23589;BME280;11972;48.078;11.876;2023-04-08T20:24:54;95949.75;;;4.08;100.00
23589;BME280;11972;48.078;11.876;2023-04-08T20:28:56;95944.69;;;4.16;100.00
23589;BME280;11972;48.078;11.876;2023-04-08T20:32:56;95937.09;;;4.13;100.00
23589;BME280;11972;48.078;11.876;2023-04-08T20:36:56;95950.00;;;4.05;100.00
23589;BME280;11972;48.078;11.876;2023-04-08T20:40:57;95942.28;;;4.03;100.00
23589;BME280;11972;48.078;11.876;2023-04-08T20:44:57;95943.41;;;4.10;100.00
23589;BME280;11972;48.078;11.876;2023-04-08T20:48:57;95947.13;;;4.08;100.00
23589;BME280;11972;48.078;11.876;2023-04-08T20:52:58;95944.22;;;4.01;100.00
23589;BME280;11972;48.078;11.876;2023-04-08T20:56:58;95951.72;;;3.94;100.00
23589;BME280;11972;48.078;11.876;2023-04-08T21:00:58;95952.41;;;3.87;100.00
23589;BME280;11972;48.078;11.876;2023-04-08T21:04:59;95958.97;;;3.81;100.00
23589;BME280;11972;48.078;11.876;2023-04-08T21:08:59;95954.97;;;3.77;100.00